Terminal Aerodrome Forecast
Issued by NWS

Home | Current Version | Previous Version | Text Only | Print | Product List | Glossary On
Versions: 1 2 3 4 5 6 7 8 9 10 11 12
000
FTUS44 KTSA 281700
TAFRVS
TAF
KRVS 281735Z 2818/2918 03006KT P6SM SCT120 SCT250
     FM282100 36009KT P6SM SCT110 SCT250
     FM290300 00000KT P6SM SCT140 SCT250=

USA.gov is the U.S. government's official web portal to all federal, state and local government web resources and services.